createdAt,value
2023-03-05T00:02:46.367Z,94.98
2023-03-05T00:05:46.350Z,94.19
2023-03-05T00:08:46.354Z,94.45
2023-03-05T00:11:46.352Z,94.22
2023-03-05T00:14:46.360Z,94.08
2023-03-05T00:17:46.353Z,94.86
2023-03-05T00:20:48.394Z,94.61
2023-03-05T00:23:48.361Z,95.76
2023-03-05T00:26:50.394Z,95.84
2023-03-05T00:29:50.395Z,94.12
2023-03-05T00:32:50.356Z,92.31
2023-03-05T00:35:58.344Z,92.57
2023-03-05T00:38:58.371Z,92.63
2023-03-05T00:41:58.377Z,92.21
2023-03-05T00:44:58.375Z,92.93
2023-03-05T00:47:58.383Z,92.73
2023-03-05T00:50:58.384Z,93.09
2023-03-05T00:53:58.346Z,92.18
2023-03-05T00:56:58.378Z,92.30
2023-03-05T00:59:58.380Z,91.87
2023-03-05T01:02:59.377Z,92.15
2023-03-05T01:05:59.384Z,92.74
2023-03-05T01:08:59.349Z,93.79
2023-03-05T01:11:59.374Z,93.43
2023-03-05T01:14:59.354Z,93.61
2023-03-05T01:17:59.307Z,93.40
2023-03-05T01:20:59.337Z,93.62
2023-03-05T01:23:59.290Z,93.14
2023-03-05T01:26:59.353Z,92.78
2023-03-05T01:29:59.286Z,92.97
2023-03-05T01:32:59.321Z,92.97
2023-03-05T01:36:03.342Z,92.38
2023-03-05T01:39:03.356Z,92.61
2023-03-05T01:42:03.314Z,92.76
2023-03-05T01:45:32.391Z,93.17
2023-03-05T01:48:32.334Z,93.36
2023-03-05T01:51:33.371Z,93.30
2023-03-05T01:54:35.341Z,93.43
2023-03-05T01:57:38.327Z,94.66
2023-03-05T02:00:57.355Z,94.46
2023-03-05T02:03:58.329Z,94.58
2023-03-05T02:06:58.493Z,94.78
2023-03-05T02:09:58.335Z,94.60
2023-03-05T02:12:58.350Z,94.47
2023-03-05T02:15:58.340Z,94.21
2023-03-05T02:18:58.313Z,93.23
2023-03-05T02:22:00.322Z,93.73
2023-03-05T02:25:00.343Z,93.61
2023-03-05T02:28:14.333Z,92.81
2023-03-05T02:31:14.322Z,92.69
2023-03-05T02:34:14.352Z,91.76
2023-03-05T02:37:15.317Z,91.50
2023-03-05T02:40:17.336Z,90.68
2023-03-05T02:43:17.383Z,90.46
2023-03-05T02:46:17.389Z,89.97
2023-03-05T02:49:17.336Z,89.73
2023-03-05T02:52:17.331Z,89.48
2023-03-05T02:55:17.327Z,89.16
2023-03-05T02:58:17.306Z,88.51
2023-03-05T03:01:17.335Z,88.22
2023-03-05T03:04:17.315Z,87.99
2023-03-05T03:07:17.326Z,87.98
2023-03-05T03:10:19.342Z,87.60
2023-03-05T03:13:19.305Z,87.54
2023-03-05T03:16:25.382Z,87.56
2023-03-05T03:19:25.309Z,87.61
2023-03-05T03:22:26.343Z,87.63
2023-03-05T03:25:32.290Z,87.62
2023-03-05T03:28:32.321Z,87.74
2023-03-05T03:31:32.325Z,87.31
2023-03-05T03:34:33.306Z,87.21
2023-03-05T03:37:33.305Z,86.92
2023-03-05T03:40:33.318Z,86.79
2023-03-05T03:43:33.350Z,86.34
2023-03-05T03:46:33.465Z,85.85
2023-03-05T03:49:35.353Z,85.35
2023-03-05T03:52:35.289Z,85.04
2023-03-05T03:55:35.360Z,84.93
2023-03-05T03:58:35.354Z,85.09
2023-03-05T04:01:35.316Z,84.86
2023-03-05T04:04:36.342Z,84.85
2023-03-05T04:07:36.355Z,84.99
2023-03-05T04:10:36.314Z,84.89
2023-03-05T04:13:36.307Z,85.01
2023-03-05T04:16:36.298Z,85.10
2023-03-05T04:19:37.325Z,85.27
2023-03-05T04:22:37.363Z,85.14
2023-03-05T04:25:37.316Z,85.24
2023-03-05T04:28:37.348Z,85.04
2023-03-05T04:31:37.353Z,85.12
2023-03-05T04:34:37.349Z,84.95
2023-03-05T04:37:38.334Z,84.74
2023-03-05T04:40:38.337Z,84.57
2023-03-05T04:43:38.306Z,84.71
2023-03-05T04:46:38.348Z,84.76
2023-03-05T04:49:38.293Z,84.85
2023-03-05T04:52:38.291Z,84.78
2023-03-05T04:55:31.291Z,84.39
2023-03-05T04:58:17.326Z,84.49
2023-03-05T05:01:19.363Z,84.45
2023-03-05T05:04:19.286Z,84.50
2023-03-05T05:07:19.314Z,84.54
2023-03-05T05:10:20.336Z,84.59
2023-03-05T05:13:20.391Z,84.46
2023-03-05T05:16:22.394Z,84.70
2023-03-05T05:19:22.546Z,84.54
2023-03-05T05:22:22.285Z,84.32
2023-03-05T05:25:23.426Z,84.59
2023-03-05T05:28:24.333Z,83.97
2023-03-05T05:31:25.308Z,83.68
2023-03-05T05:34:25.305Z,83.58
2023-03-05T05:37:25.321Z,83.50
2023-03-05T05:40:25.328Z,83.53
2023-03-05T05:43:25.317Z,83.48
2023-03-05T05:46:28.382Z,83.47
2023-03-05T05:49:28.300Z,82.47
2023-03-05T05:52:28.340Z,82.36
2023-03-05T05:55:28.287Z,81.95
2023-03-05T05:58:28.349Z,81.85
2023-03-05T06:01:31.341Z,81.05
2023-03-05T06:04:31.286Z,80.38
2023-03-05T06:07:31.299Z,79.79
2023-03-05T06:10:31.290Z,78.60
2023-03-05T06:13:31.304Z,78.02
2023-03-05T06:16:34.365Z,77.61
2023-03-05T06:19:34.337Z,77.54
2023-03-05T06:22:34.287Z,78.03
2023-03-05T06:25:34.309Z,78.84
2023-03-05T06:28:34.322Z,79.43
2023-03-05T06:31:37.394Z,80.16
2023-03-05T06:34:37.311Z,80.69
2023-03-05T06:37:37.348Z,82.14
2023-03-05T06:40:37.299Z,82.06
2023-03-05T06:43:39.359Z,82.98
2023-03-05T06:46:42.330Z,83.01
2023-03-05T06:49:42.322Z,83.57
2023-03-05T06:52:42.327Z,84.02
2023-03-05T06:55:46.369Z,82.96
2023-03-05T06:58:46.340Z,82.52
2023-03-05T07:01:46.307Z,80.94
2023-03-05T07:04:46.313Z,80.23
2023-03-05T07:07:46.286Z,79.84
2023-03-05T07:10:46.322Z,79.39
2023-03-05T07:13:46.308Z,77.13
2023-03-05T07:16:48.309Z,78.98
2023-03-05T07:19:48.297Z,78.39
2023-03-05T07:22:48.273Z,77.51
2023-03-05T07:25:50.304Z,78.07
2023-03-05T07:28:50.286Z,78.28
2023-03-05T07:31:50.331Z,78.26
2023-03-05T07:34:51.298Z,77.28
2023-03-05T07:37:51.327Z,75.94
2023-03-05T07:40:51.286Z,76.50
2023-03-05T07:43:51.294Z,75.65
2023-03-05T07:46:51.318Z,76.00
2023-03-05T07:49:51.329Z,76.31
2023-03-05T07:52:51.291Z,76.26
2023-03-05T07:56:00.305Z,76.27
2023-03-05T07:59:00.305Z,76.01
2023-03-05T08:02:00.333Z,75.87
2023-03-05T08:05:00.289Z,75.84
2023-03-05T08:08:00.316Z,75.10
2023-03-05T08:11:01.011Z,74.02
2023-03-05T08:14:02.326Z,74.26
2023-03-05T08:17:02.282Z,73.41
2023-03-05T08:20:05.342Z,72.85
2023-03-05T08:23:05.330Z,72.81
2023-03-05T08:26:05.337Z,72.18
2023-03-05T08:29:05.302Z,72.49
2023-03-05T08:32:05.353Z,72.26
2023-03-05T08:35:09.307Z,71.10
2023-03-05T08:38:09.322Z,69.69
2023-03-05T08:41:09.280Z,68.83
2023-03-05T08:44:09.327Z,67.39
2023-03-05T08:47:09.314Z,66.64
2023-03-05T08:50:09.293Z,66.26
2023-03-05T08:53:09.314Z,66.08
2023-03-05T08:56:10.334Z,65.32
2023-03-05T08:59:12.593Z,65.03
2023-03-05T09:02:16.295Z,64.66
2023-03-05T09:05:17.282Z,64.55
2023-03-05T09:08:17.329Z,64.83
2023-03-05T09:11:19.286Z,64.39
2023-03-05T09:14:20.292Z,63.62
2023-03-05T09:17:20.296Z,63.75
2023-03-05T09:20:20.313Z,64.21
2023-03-05T09:23:20.289Z,63.80
2023-03-05T09:26:23.264Z,64.38
2023-03-05T09:29:23.299Z,62.39
2023-03-05T09:32:23.318Z,62.42
2023-03-05T09:35:23.330Z,62.47
2023-03-05T09:38:23.305Z,63.77
2023-03-05T09:42:14.284Z,61.75
2023-03-05T09:45:23.290Z,62.62
2023-03-05T09:48:38.282Z,61.88
2023-03-05T09:51:41.329Z,62.23
2023-03-05T09:54:59.323Z,61.24
2023-03-05T09:58:03.320Z,61.63
2023-03-05T10:01:04.288Z,61.23
2023-03-05T10:04:11.350Z,61.85
2023-03-05T10:07:20.327Z,60.90
2023-03-05T10:10:31.313Z,60.78
2023-03-05T10:13:52.316Z,60.59
2023-03-05T10:17:01.306Z,59.98
2023-03-05T10:20:19.323Z,59.89
2023-03-05T10:23:22.315Z,60.48
2023-03-05T10:26:37.318Z,61.08
2023-03-05T10:30:04.262Z,62.23
2023-03-05T10:33:28.315Z,63.79
2023-03-05T10:36:58.176Z,64.05
2023-03-05T10:40:28.270Z,64.32
2023-03-05T10:43:28.317Z,64.39
2023-03-05T10:46:32.296Z,64.68
2023-03-05T10:49:47.282Z,64.84
2023-03-05T10:52:53.332Z,65.05
2023-03-05T10:55:53.260Z,66.15
2023-03-05T10:58:53.332Z,66.78
2023-03-05T11:01:53.315Z,67.19
2023-03-05T11:04:54.309Z,66.79
2023-03-05T11:07:55.286Z,67.23
2023-03-05T11:10:55.290Z,66.34
2023-03-05T11:14:04.310Z,65.82
2023-03-05T11:17:04.272Z,65.55
2023-03-05T11:20:04.301Z,65.71
2023-03-05T11:23:22.266Z,65.31
2023-03-05T11:26:28.358Z,65.96
2023-03-05T11:29:41.260Z,65.92
2023-03-05T11:32:42.292Z,65.37
2023-03-05T11:35:48.407Z,65.30
2023-03-05T11:38:59.285Z,65.27
2023-03-05T11:42:05.314Z,66.09
2023-03-05T11:45:06.285Z,66.83
2023-03-05T11:48:08.289Z,68.86
2023-03-05T11:51:15.324Z,68.22
2023-03-05T11:54:20.261Z,68.01
2023-03-05T11:57:21.291Z,67.18
2023-03-05T12:00:27.282Z,67.00
2023-03-05T12:03:30.366Z,66.95
2023-03-05T12:06:42.631Z,68.07
2023-03-05T12:10:00.305Z,67.08
2023-03-05T12:13:15.355Z,68.03
2023-03-05T12:16:21.326Z,68.75
2023-03-05T12:19:45.328Z,66.47
2023-03-05T12:22:51.279Z,67.50
2023-03-05T12:26:00.321Z,66.71
2023-03-05T12:29:00.303Z,66.97
2023-03-05T12:32:00.351Z,67.54
2023-03-05T12:35:03.308Z,68.93
2023-03-05T12:38:17.243Z,68.63
2023-03-05T12:41:36.307Z,68.67
2023-03-05T12:44:36.298Z,69.52
2023-03-05T12:47:36.269Z,70.25
2023-03-05T12:50:42.324Z,69.61
2023-03-05T12:53:42.288Z,69.20
2023-03-05T12:56:43.307Z,68.48
2023-03-05T13:00:01.305Z,67.89
2023-03-05T13:03:05.349Z,68.32
2023-03-05T13:06:13.271Z,68.74
2023-03-05T13:09:32.296Z,68.02
2023-03-05T13:12:32.276Z,68.13
2023-03-05T13:15:32.321Z,67.21
2023-03-05T13:18:43.271Z,67.05
2023-03-05T13:21:45.287Z,66.51
2023-03-05T13:24:45.254Z,67.11
2023-03-05T13:27:46.325Z,66.50
2023-03-05T13:30:46.283Z,67.35
2023-03-05T13:33:48.268Z,66.27
2023-03-05T13:36:48.264Z,65.50
2023-03-05T13:39:51.261Z,65.93
2023-03-05T13:42:51.270Z,66.20
2023-03-05T13:45:51.314Z,66.87
2023-03-05T13:48:51.331Z,66.55
2023-03-05T13:51:58.297Z,66.92
2023-03-05T13:54:58.301Z,64.37
2023-03-05T13:58:05.268Z,62.46
2023-03-05T14:01:17.346Z,62.25
2023-03-05T14:04:21.374Z,61.68
2023-03-05T14:07:31.280Z,61.94
2023-03-05T14:10:51.266Z,61.56
2023-03-05T14:13:51.321Z,62.47
2023-03-05T14:16:51.269Z,62.43
2023-03-05T14:19:52.325Z,62.52
2023-03-05T14:22:57.267Z,62.39
2023-03-05T14:25:57.286Z,62.21
2023-03-05T14:28:57.275Z,62.26
2023-03-05T14:32:15.344Z,61.84
2023-03-05T14:35:18.286Z,61.44
2023-03-05T14:38:18.295Z,61.09
2023-03-05T14:41:49.314Z,61.00
2023-03-05T14:44:50.299Z,60.81
2023-03-05T14:47:50.284Z,60.75
2023-03-05T14:50:55.247Z,60.85
2023-03-05T14:54:00.320Z,60.48
2023-03-05T14:57:00.297Z,60.34
2023-03-05T14:59:54.335Z,60.28
2023-03-05T15:02:54.297Z,60.35
2023-03-05T15:05:54.339Z,61.34
2023-03-05T15:08:54.291Z,61.83
2023-03-05T15:11:47.339Z,62.29
2023-03-05T15:14:26.383Z,62.37
2023-03-05T15:17:13.290Z,62.26
2023-03-05T15:20:06.352Z,62.40
2023-03-05T15:23:07.316Z,62.43
2023-03-05T15:26:12.289Z,62.40
2023-03-05T15:29:12.309Z,62.67
2023-03-05T15:32:12.324Z,63.24
2023-03-05T15:35:12.303Z,64.00
2023-03-05T15:38:12.335Z,64.76
2023-03-05T15:41:12.265Z,66.38
2023-03-05T15:44:12.287Z,66.44
2023-03-05T15:47:12.279Z,66.92
2023-03-05T15:50:12.274Z,67.58
2023-03-05T15:53:12.303Z,68.55
2023-03-05T15:56:12.280Z,68.45
2023-03-05T15:59:12.327Z,69.19
2023-03-05T16:02:12.262Z,69.39
2023-03-05T16:05:12.282Z,70.51
2023-03-05T16:08:12.266Z,70.30
2023-03-05T16:11:12.282Z,70.84
2023-03-05T16:14:12.348Z,71.02
2023-03-05T16:17:13.313Z,71.46
2023-03-05T16:20:13.308Z,71.90
2023-03-05T16:23:13.297Z,72.72
2023-03-05T16:26:13.317Z,72.64
2023-03-05T16:29:13.256Z,71.91
2023-03-05T16:32:15.321Z,72.36
2023-03-05T16:35:15.267Z,73.17
2023-03-05T16:38:15.314Z,73.24
2023-03-05T16:41:15.320Z,73.67
2023-03-05T16:44:15.288Z,73.64
2023-03-05T16:47:15.314Z,73.61
2023-03-05T16:50:15.287Z,73.02
2023-03-05T16:53:15.297Z,73.76
2023-03-05T16:56:16.308Z,72.82
2023-03-05T16:59:16.321Z,72.46
2023-03-05T17:02:17.279Z,72.31
2023-03-05T17:05:18.318Z,72.05
2023-03-05T17:08:18.262Z,71.74
2023-03-05T17:11:18.324Z,71.25
2023-03-05T17:14:21.290Z,70.92
2023-03-05T17:17:21.288Z,70.89
2023-03-05T17:20:22.291Z,70.70
2023-03-05T17:23:22.280Z,70.52
2023-03-05T17:26:25.302Z,70.17
2023-03-05T17:29:26.301Z,70.08
2023-03-05T17:32:26.351Z,69.77
2023-03-05T17:35:33.331Z,69.79
2023-03-05T17:38:33.261Z,69.86
2023-03-05T17:41:33.324Z,69.94
2023-03-05T17:44:33.275Z,70.14
2023-03-05T17:47:33.299Z,70.48
2023-03-05T17:50:33.312Z,70.32
2023-03-05T17:53:33.260Z,70.41
2023-03-05T17:56:33.295Z,70.09
2023-03-05T17:59:33.260Z,70.14
2023-03-05T18:02:33.271Z,70.08
2023-03-05T18:05:35.264Z,70.33
2023-03-05T18:08:35.267Z,70.21
2023-03-05T18:11:36.265Z,70.08
2023-03-05T18:14:36.277Z,69.84
2023-03-05T18:17:36.267Z,69.77
2023-03-05T18:20:45.286Z,69.83
2023-03-05T18:23:45.299Z,69.72
2023-03-05T18:26:45.264Z,69.95
2023-03-05T18:29:45.265Z,70.75
2023-03-05T18:32:45.275Z,70.97
2023-03-05T18:35:45.329Z,71.41
2023-03-05T18:38:45.258Z,71.93
2023-03-05T18:41:45.300Z,72.05
2023-03-05T18:44:45.246Z,72.09
2023-03-05T18:47:48.319Z,72.43
2023-03-05T18:50:48.252Z,73.16
2023-03-05T18:53:48.272Z,72.76
2023-03-05T18:56:48.294Z,73.83
2023-03-05T18:59:48.261Z,73.65
2023-03-05T19:02:48.266Z,74.26
2023-03-05T19:05:48.251Z,74.14
2023-03-05T19:08:48.267Z,74.48
2023-03-05T19:12:09.257Z,74.61
2023-03-05T19:15:09.262Z,74.46
2023-03-05T19:18:09.235Z,74.54
2023-03-05T19:21:23.298Z,74.66
2023-03-05T19:24:02.366Z,74.23
2023-03-05T19:26:48.309Z,72.66
2023-03-05T19:29:35.296Z,71.94
2023-03-05T19:32:35.344Z,70.98
2023-03-05T19:35:35.290Z,69.90
2023-03-05T19:38:35.281Z,68.82
2023-03-05T19:41:36.298Z,68.81
2023-03-05T19:44:36.284Z,69.30
2023-03-05T19:47:36.265Z,70.73
2023-03-05T19:50:36.294Z,71.55
2023-03-05T19:53:36.314Z,72.63
2023-03-05T19:56:36.251Z,72.01
2023-03-05T19:59:36.307Z,72.32
2023-03-05T20:02:36.260Z,72.61
2023-03-05T20:05:36.263Z,72.88
2023-03-05T20:08:36.275Z,73.12
2023-03-05T20:11:37.311Z,72.17
2023-03-05T20:14:37.317Z,72.24
2023-03-05T20:17:37.307Z,72.04
2023-03-05T20:20:38.298Z,72.65
2023-03-05T20:23:38.286Z,74.31
2023-03-05T20:26:39.264Z,75.55
2023-03-05T20:29:39.287Z,77.08
2023-03-05T20:32:39.296Z,76.32
2023-03-05T20:35:39.349Z,76.98
2023-03-05T20:38:43.261Z,76.25
2023-03-05T20:41:44.291Z,75.55
2023-03-05T20:44:44.305Z,73.76
2023-03-05T20:47:56.292Z,73.22
2023-03-05T20:50:56.297Z,72.79
2023-03-05T20:53:56.287Z,71.40
2023-03-05T20:56:56.269Z,70.19
2023-03-05T20:59:56.243Z,70.20
2023-03-05T21:02:58.246Z,69.75
2023-03-05T21:05:58.283Z,69.35
2023-03-05T21:08:58.320Z,69.75
2023-03-05T21:11:58.314Z,68.96
2023-03-05T21:14:58.292Z,69.15
2023-03-05T21:17:58.304Z,69.53
2023-03-05T21:20:58.272Z,70.16
2023-03-05T21:23:58.265Z,71.33
2023-03-05T21:26:58.253Z,72.38
2023-03-05T21:29:58.298Z,73.09
2023-03-05T21:32:58.252Z,74.14
2023-03-05T21:35:59.285Z,74.56
2023-03-05T21:39:00.312Z,73.91
2023-03-05T21:42:00.251Z,73.96
2023-03-05T21:45:00.320Z,73.33
2023-03-05T21:48:00.296Z,73.11
2023-03-05T21:51:01.305Z,73.40
2023-03-05T21:54:19.254Z,73.33
2023-03-05T21:57:19.261Z,72.94
2023-03-05T22:00:19.290Z,73.30
2023-03-05T22:03:19.286Z,72.91
2023-03-05T22:06:23.253Z,72.69
2023-03-05T22:09:23.262Z,71.81
2023-03-05T22:12:58.252Z,71.72
2023-03-05T22:16:06.280Z,71.53
2023-03-05T22:19:06.243Z,71.66
2023-03-05T22:22:06.285Z,71.58
2023-03-05T22:25:06.229Z,71.30
2023-03-05T22:28:06.279Z,71.30
2023-03-05T22:31:06.324Z,71.00
2023-03-05T22:34:06.263Z,70.52
2023-03-05T22:37:06.277Z,70.01
2023-03-05T22:40:10.240Z,69.64
2023-03-05T22:43:10.330Z,69.54
2023-03-05T22:46:10.284Z,69.62
2023-03-05T22:49:10.274Z,69.80
2023-03-05T22:52:10.241Z,69.86
2023-03-05T22:55:11.269Z,69.74
2023-03-05T22:58:11.277Z,69.44
2023-03-05T23:01:11.298Z,69.47
2023-03-05T23:04:46.249Z,69.34
2023-03-05T23:07:48.297Z,69.00
2023-03-05T23:10:48.261Z,67.78
2023-03-05T23:13:48.258Z,67.69
2023-03-05T23:16:48.293Z,67.88
2023-03-05T23:19:45.238Z,67.78
2023-03-05T23:22:38.291Z,67.43
2023-03-05T23:25:44.281Z,66.81
2023-03-05T23:28:45.262Z,66.74
2023-03-05T23:31:45.288Z,66.38
2023-03-05T23:34:45.254Z,66.59
2023-03-05T23:37:45.262Z,66.22
2023-03-05T23:40:48.308Z,66.26
2023-03-05T23:43:48.286Z,66.20
2023-03-05T23:46:48.285Z,66.53
2023-03-05T23:49:48.295Z,66.35
2023-03-05T23:52:48.303Z,65.31
2023-03-05T23:55:55.235Z,65.58
2023-03-05T23:58:55.230Z,66.01
